Time;durP1;ratioP1;P1;durP2;ratioP2;P2;SDS_P1;SDS_P2;PMS_P1;PMS_P2;Temp;Humidity;BMP_temperature;BMP_pressure;BME280_temperature;BME280_humidity;BME280_pressure;Samples;Min_cycle;Max_cycle;Signal;HPM_P1;HPM_P2
2021/10/29 00:00:35;;;;;;;6.68;3.70;;;13.10;99.90;;;;;;5015223;28;20642;-81
2021/10/29 00:03:03;;;;;;;7.43;4.10;;;13.10;99.90;;;;;;5015794;28;20901;-79
2021/10/29 00:05:29;;;;;;;5.15;4.65;;;13.20;99.90;;;;;;5015225;28;20165;-81
2021/10/29 00:07:55;;;;;;;4.35;3.95;;;13.20;99.90;;;;;;5014970;28;20173;-81
2021/10/29 00:10:21;;;;;;;4.68;4.28;;;13.30;99.90;;;;;;5015611;28;20189;-78
2021/10/29 00:12:47;;;;;;;5.07;4.25;;;13.20;99.90;;;;;;5015347;28;20178;-78
2021/10/29 00:15:13;;;;;;;13.05;3.83;;;13.20;99.90;;;;;;5015347;28;20244;-80
2021/10/29 00:17:39;;;;;;;5.40;4.80;;;13.30;99.90;;;;;;5015594;28;20387;-82
2021/10/29 00:20:06;;;;;;;4.60;4.20;;;13.20;99.90;;;;;;5013737;28;20192;-79
2021/10/29 00:22:32;;;;;;;13.07;4.22;;;13.10;99.90;;;;;;5014990;28;20173;-80
2021/10/29 00:24:59;;;;;;;5.75;4.43;;;13.10;99.90;;;;;;5015067;28;20173;-78
2021/10/29 00:27:24;;;;;;;5.13;4.25;;;13.10;99.90;;;;;;5015241;28;20168;-78
2021/10/29 00:29:50;;;;;;;8.35;4.40;;;13.20;99.90;;;;;;5014970;28;20192;-76
2021/10/29 00:32:17;;;;;;;4.65;4.25;;;13.20;99.90;;;;;;5015396;28;20180;-76
2021/10/29 00:34:43;;;;;;;6.35;4.47;;;13.10;99.90;;;;;;5015134;28;20156;-77
2021/10/29 00:37:08;;;;;;;6.20;5.15;;;13.10;99.90;;;;;;5014860;28;20227;-80
2021/10/29 00:39:34;;;;;;;7.25;4.90;;;13.00;99.90;;;;;;5015139;28;20640;-78
2021/10/29 00:42:01;;;;;;;10.48;4.38;;;12.90;99.90;;;;;;5015217;28;20172;-78
2021/10/29 00:44:27;;;;;;;6.80;5.05;;;13.00;99.90;;;;;;5014639;28;20205;-77
2021/10/29 00:46:53;;;;;;;5.32;4.50;;;13.10;99.90;;;;;;5014677;28;20176;-79
2021/10/29 00:49:20;;;;;;;4.35;3.95;;;13.00;99.90;;;;;;5014638;28;20214;-78
2021/10/29 00:51:47;;;;;;;4.78;4.15;;;12.90;99.90;;;;;;5014584;28;20168;-80
2021/10/29 00:54:15;;;;;;;6.30;4.63;;;13.00;99.90;;;;;;5014565;28;20226;-78
2021/10/29 00:56:42;;;;;;;5.15;4.65;;;13.00;99.90;;;;;;5014425;28;20172;-79
2021/10/29 00:59:08;;;;;;;9.25;4.78;;;13.00;99.90;;;;;;5014550;28;20195;-78
2021/10/29 01:01:33;;;;;;;4.38;3.97;;;13.00;99.90;;;;;;5013300;28;20206;-78
2021/10/29 01:03:59;;;;;;;6.18;4.30;;;13.00;99.90;;;;;;5014193;28;20572;-82
2021/10/29 01:06:25;;;;;;;4.55;3.95;;;12.90;99.90;;;;;;5013657;28;20685;-77
2021/10/29 01:08:51;;;;;;;6.72;4.65;;;13.00;99.90;;;;;;5014214;28;20533;-81
2021/10/29 01:11:17;;;;;;;4.57;4.18;;;13.20;99.90;;;;;;5014674;28;20167;-78
2021/10/29 01:13:48;;;;;;;6.85;4.95;;;13.00;99.90;;;;;;5014277;28;20169;-79
2021/10/29 01:16:15;;;;;;;5.50;4.68;;;13.00;99.90;;;;;;5013363;28;20179;-78
2021/10/29 01:18:40;;;;;;;6.40;4.95;;;13.00;99.90;;;;;;5014134;28;20264;-82
2021/10/29 01:21:06;;;;;;;5.45;4.95;;;13.10;99.90;;;;;;5013964;28;20623;-78
2021/10/29 01:23:36;;;;;;;4.85;4.43;;;13.20;99.90;;;;;;5014061;28;20212;-81
2021/10/29 01:26:11;;;;;;;7.20;4.30;;;13.10;99.90;;;;;;5014207;28;20256;-82
2021/10/29 01:28:37;;;;;;;10.95;5.05;;;12.90;99.90;;;;;;5014080;28;20239;-78
2021/10/29 01:31:03;;;;;;;7.38;4.25;;;13.00;99.90;;;;;;5013822;28;20173;-78
2021/10/29 01:33:30;;;;;;;4.97;4.45;;;13.00;99.90;;;;;;5012599;28;20172;-78
2021/10/29 01:35:57;;;;;;;4.47;4.03;;;13.00;99.90;;;;;;5013802;28;20165;-78
2021/10/29 01:38:36;;;;;;;6.70;4.90;;;12.90;99.90;;;;;;5013817;28;20539;-78
2021/10/29 01:41:03;;;;;;;8.55;4.38;;;12.80;99.90;;;;;;5013715;28;20168;-82
2021/10/29 01:43:29;;;;;;;9.02;5.20;;;12.90;99.90;;;;;;4996235;28;20611;-81
2021/10/29 01:45:56;;;;;;;7.40;5.13;;;12.90;99.90;;;;;;5013845;28;20211;-78
2021/10/29 01:48:23;;;;;;;10.40;4.72;;;12.90;99.90;;;;;;5013841;28;20185;-81
2021/10/29 01:50:50;;;;;;;6.93;4.40;;;12.80;99.90;;;;;;5013570;28;20181;-78
2021/10/29 01:53:16;;;;;;;6.00;4.57;;;12.90;99.90;;;;;;5013666;28;20637;-78
2021/10/29 01:55:41;;;;;;;5.88;4.78;;;12.90;99.90;;;;;;5013471;28;20218;-78
2021/10/29 01:58:07;;;;;;;10.18;4.65;;;12.90;99.90;;;;;;5013735;28;20168;-78
2021/10/29 02:00:33;;;;;;;8.35;5.03;;;12.80;99.90;;;;;;5013605;28;20285;-78
2021/10/29 02:02:59;;;;;;;11.95;5.70;;;12.80;99.90;;;;;;5013409;28;20193;-79
2021/10/29 02:05:25;;;;;;;7.13;5.20;;;12.60;99.90;;;;;;5013349;28;20173;-77
2021/10/29 02:07:50;;;;;;;6.93;4.18;;;12.50;99.90;;;;;;5013102;28;20271;-77
2021/10/29 02:10:16;;;;;;;6.78;4.47;;;12.70;99.90;;;;;;5013313;28;20287;-79
2021/10/29 02:12:42;;;;;;;4.88;4.38;;;12.80;99.90;;;;;;5013207;28;20185;-81
2021/10/29 02:15:08;;;;;;;5.70;4.45;;;12.80;99.90;;;;;;5012949;28;20625;-78
2021/10/29 02:17:34;;;;;;;5.10;4.45;;;12.80;99.90;;;;;;5012984;28;20165;-77
2021/10/29 02:20:01;;;;;;;8.68;5.00;;;12.70;99.90;;;;;;5013325;28;20668;-80
2021/10/29 02:22:26;;;;;;;7.07;4.47;;;12.90;99.90;;;;;;5013219;28;20180;-78
2021/10/29 02:24:52;;;;;;;9.27;4.88;;;12.90;99.90;;;;;;5013640;28;20212;-79
2021/10/29 02:27:17;;;;;;;5.57;4.47;;;12.90;99.90;;;;;;5013532;28;20231;-80
2021/10/29 02:29:43;;;;;;;9.00;4.45;;;12.80;99.90;;;;;;5011436;28;20255;-78
2021/10/29 02:32:09;;;;;;;9.60;4.43;;;12.90;99.90;;;;;;5013470;28;20180;-81
2021/10/29 02:34:35;;;;;;;8.10;4.88;;;12.80;99.90;;;;;;5012848;28;20169;-78
2021/10/29 02:37:00;;;;;;;8.57;4.88;;;12.90;99.90;;;;;;5013033;28;20263;-81
2021/10/29 02:39:26;;;;;;;6.93;4.22;;;12.90;99.90;;;;;;5012558;28;20254;-81
2021/10/29 02:41:52;;;;;;;6.75;4.38;;;12.90;99.90;;;;;;5012659;28;20214;-77
2021/10/29 02:44:17;;;;;;;7.18;4.50;;;12.90;99.90;;;;;;5012321;28;20234;-81
2021/10/29 02:46:43;;;;;;;4.85;4.10;;;12.90;99.90;;;;;;5012760;28;20621;-77
2021/10/29 02:49:09;;;;;;;7.30;4.70;;;12.80;99.90;;;;;;5012848;28;20188;-77
2021/10/29 02:51:35;;;;;;;10.40;5.75;;;12.80;99.90;;;;;;5013214;28;20179;-78
2021/10/29 02:54:01;;;;;;;6.25;4.60;;;12.90;99.90;;;;;;5012987;28;20173;-77
2021/10/29 02:56:27;;;;;;;7.85;4.60;;;13.00;99.90;;;;;;5013014;28;20176;-79
2021/10/29 02:58:52;;;;;;;4.70;4.30;;;13.00;99.90;;;;;;5012759;28;20188;-80
2021/10/29 03:01:18;;;;;;;8.73;4.45;;;13.00;99.90;;;;;;5012921;28;20222;-82
2021/10/29 03:03:44;;;;;;;14.25;4.45;;;13.00;99.90;;;;;;5012822;28;20757;-81
2021/10/29 03:06:09;;;;;;;5.30;4.80;;;12.90;99.90;;;;;;5013077;28;20164;-77
2021/10/29 03:08:35;;;;;;;11.63;4.88;;;12.80;99.90;;;;;;5012717;28;20579;-78
2021/10/29 03:11:01;;;;;;;7.45;4.43;;;12.90;99.90;;;;;;5012795;28;20204;-79
2021/10/29 03:13:27;;;;;;;6.72;4.45;;;12.90;99.90;;;;;;5012613;28;20190;-78
2021/10/29 03:15:53;;;;;;;6.20;4.72;;;12.80;99.90;;;;;;5012516;28;20173;-78
2021/10/29 03:18:20;;;;;;;5.72;3.85;;;12.80;99.90;;;;;;5012565;28;20196;-80
2021/10/29 03:20:47;;;;;;;7.00;4.97;;;12.80;99.90;;;;;;5012623;28;20227;-79
2021/10/29 03:23:15;;;;;;;7.30;4.18;;;12.70;99.90;;;;;;5012136;28;20200;-79
2021/10/29 03:25:41;;;;;;;6.60;4.45;;;12.60;99.90;;;;;;5012558;28;20203;-77
2021/10/29 03:28:07;;;;;;;5.03;4.50;;;12.60;99.90;;;;;;5012570;28;20164;-78
2021/10/29 03:30:33;;;;;;;6.35;4.53;;;12.70;99.90;;;;;;5014306;28;20184;-77
2021/10/29 03:32:59;;;;;;;7.80;4.00;;;12.70;99.90;;;;;;5016268;28;20263;-78
2021/10/29 03:35:25;;;;;;;4.63;4.20;;;12.70;99.90;;;;;;5015977;28;20592;-79
2021/10/29 03:45:28;;;;;;;5.70;5.10;;;12.70;99.90;;;;;;5016131;28;20172;-79
2021/10/29 03:47:58;;;;;;;5.55;4.25;;;12.60;99.90;;;;;;5014604;28;20271;-78
2021/10/29 03:50:33;;;;;;;5.32;4.60;;;12.60;99.90;;;;;;5015794;28;20172;-77
2021/10/29 03:53:22;;;;;;;7.95;4.18;;;12.70;99.90;;;;;;5016225;28;20175;-77
2021/10/29 03:55:47;;;;;;;4.70;4.18;;;12.70;99.90;;;;;;5014756;28;20164;-81
2021/10/29 03:58:13;;;;;;;10.60;4.90;;;12.80;99.90;;;;;;5015828;28;20756;-79
2021/10/29 04:00:38;;;;;;;7.70;4.25;;;12.70;99.90;;;;;;5015820;28;20168;-77
2021/10/29 04:03:05;;;;;;;7.28;5.25;;;12.70;99.90;;;;;;5015807;28;20235;-78
2021/10/29 04:05:32;;;;;;;6.38;3.83;;;12.70;99.90;;;;;;5015546;28;20176;-80
2021/10/29 04:07:58;;;;;;;5.55;4.32;;;12.70;99.90;;;;;;5015678;28;20624;-81
2021/10/29 04:10:29;;;;;;;8.02;4.30;;;12.60;99.90;;;;;;5015785;28;20235;-77
2021/10/29 04:13:01;;;;;;;11.95;4.30;;;12.60;99.90;;;;;;5014537;28;20519;-77
2021/10/29 04:15:27;;;;;;;8.75;4.65;;;12.60;99.90;;;;;;5015997;28;20173;-77
2021/10/29 04:17:55;;;;;;;7.05;4.55;;;12.60;99.90;;;;;;5037249;28;20179;-78
2021/10/29 04:20:21;;;;;;;13.93;4.22;;;12.60;99.90;;;;;;5040624;28;20220;-78
2021/10/29 04:22:47;;;;;;;6.75;4.45;;;12.70;99.90;;;;;;5033008;28;20172;-79
2021/10/29 04:25:13;;;;;;;7.00;4.10;;;12.80;99.90;;;;;;5034875;28;20196;-78
2021/10/29 04:27:44;;;;;;;12.05;4.68;;;12.60;99.90;;;;;;5032472;28;20173;-78
2021/10/29 04:30:15;;;;;;;10.95;4.90;;;12.60;99.90;;;;;;5017530;28;20181;-80
2021/10/29 04:32:41;;;;;;;10.25;4.80;;;12.60;99.90;;;;;;5015821;28;20215;-81
2021/10/29 04:35:07;;;;;;;15.20;5.40;;;12.60;99.90;;;;;;5015874;28;20575;-79
2021/10/29 04:37:33;;;;;;;6.82;4.95;;;12.60;99.90;;;;;;5015053;28;20211;-83
2021/10/29 04:39:59;;;;;;;9.25;4.32;;;12.70;99.90;;;;;;5015077;28;20223;-77
2021/10/29 04:42:24;;;;;;;10.80;4.53;;;12.60;99.90;;;;;;5012188;28;20230;-83
2021/10/29 04:44:50;;;;;;;14.25;4.63;;;12.60;99.90;;;;;;5013294;28;20219;-77
2021/10/29 04:47:16;;;;;;;10.95;4.65;;;12.60;99.90;;;;;;5014589;28;20160;-79
2021/10/29 04:49:41;;;;;;;5.47;3.97;;;12.60;99.90;;;;;;5014714;28;20193;-82
2021/10/29 04:52:07;;;;;;;5.75;4.45;;;12.60;99.90;;;;;;5015042;28;20215;-79
2021/10/29 04:54:32;;;;;;;8.25;4.68;;;12.70;99.90;;;;;;5014711;28;20626;-78
2021/10/29 04:56:59;;;;;;;4.03;3.70;;;12.60;99.90;;;;;;5013488;28;20502;-82
2021/10/29 04:59:25;;;;;;;16.88;4.13;;;12.60;99.90;;;;;;5014051;28;20783;-78
2021/10/29 05:01:50;;;;;;;4.85;3.75;;;12.70;99.90;;;;;;5014658;28;20629;-84
2021/10/29 05:04:18;;;;;;;9.65;3.80;;;12.70;99.90;;;;;;5014301;28;20208;-77
2021/10/29 05:06:43;;;;;;;15.70;4.15;;;12.70;99.90;;;;;;5014213;28;20164;-79
2021/10/29 05:09:09;;;;;;;4.80;3.75;;;12.80;99.90;;;;;;5014467;28;20536;-79
2021/10/29 05:11:35;;;;;;;6.18;4.15;;;12.80;99.90;;;;;;5012940;28;20532;-79
2021/10/29 05:14:00;;;;;;;4.68;3.63;;;12.60;99.90;;;;;;5014272;28;20180;-78
2021/10/29 05:16:26;;;;;;;6.47;3.67;;;12.60;99.90;;;;;;5014386;28;20168;-82
2021/10/29 05:18:52;;;;;;;7.35;3.90;;;12.70;99.90;;;;;;5012984;28;20196;-78
2021/10/29 05:21:17;;;;;;;8.48;4.35;;;12.80;99.90;;;;;;5014671;28;20243;-79
2021/10/29 05:23:43;;;;;;;6.82;4.75;;;12.70;99.90;;;;;;5014205;28;20222;-78
2021/10/29 05:26:09;;;;;;;5.72;3.90;;;12.60;99.90;;;;;;5014367;28;20161;-78
2021/10/29 05:28:35;;;;;;;13.27;3.90;;;12.60;99.90;;;;;;5013696;28;20231;-79
2021/10/29 05:31:01;;;;;;;7.15;3.88;;;12.80;99.90;;;;;;5013570;28;20183;-79
2021/10/29 05:33:27;;;;;;;5.47;3.72;;;12.70;99.90;;;;;;5013652;28;20195;-79
2021/10/29 05:35:53;;;;;;;8.32;4.40;;;12.60;99.90;;;;;;5013822;28;20184;-79
2021/10/29 05:38:19;;;;;;;6.13;3.95;;;12.60;99.90;;;;;;5013772;28;20660;-78
2021/10/29 05:40:45;;;;;;;5.18;3.75;;;12.60;99.90;;;;;;5013992;28;20173;-81
2021/10/29 05:43:10;;;;;;;6.72;4.18;;;12.70;99.90;;;;;;5013889;28;20269;-79
2021/10/29 05:45:36;;;;;;;10.00;4.03;;;12.70;99.90;;;;;;5013792;28;20195;-80
2021/10/29 05:48:05;;;;;;;5.88;4.30;;;12.70;99.90;;;;;;5013572;28;20168;-80
2021/10/29 05:50:31;;;;;;;6.00;4.35;;;12.70;99.90;;;;;;5014202;28;20169;-78
2021/10/29 05:52:58;;;;;;;21.08;5.32;;;12.70;99.90;;;;;;5013941;28;20625;-81
2021/10/29 05:55:24;;;;;;;5.22;4.47;;;12.70;99.90;;;;;;5016376;28;20177;-81
2021/10/29 05:57:51;;;;;;;13.10;5.15;;;12.70;99.90;;;;;;5013479;28;20218;-79
2021/10/29 06:00:19;;;;;;;9.77;3.83;;;12.80;99.90;;;;;;5013689;28;20589;-80
2021/10/29 06:02:46;;;;;;;17.40;5.45;;;12.70;99.90;;;;;;5013248;28;20587;-81
2021/10/29 06:05:12;;;;;;;5.78;4.90;;;12.70;99.90;;;;;;5012926;28;20239;-78
2021/10/29 06:07:38;;;;;;;10.40;4.38;;;12.60;99.90;;;;;;5012285;28;20196;-81
2021/10/29 06:10:06;;;;;;;6.07;4.13;;;12.60;99.90;;;;;;5012999;28;20242;-80
2021/10/29 06:12:34;;;;;;;9.65;5.07;;;12.60;99.90;;;;;;5012968;28;20215;-78
2021/10/29 06:14:59;;;;;;;14.25;4.40;;;12.50;99.90;;;;;;5013245;28;20160;-80
2021/10/29 06:17:27;;;;;;;9.77;4.90;;;12.70;99.90;;;;;;5012643;28;20175;-79
2021/10/29 06:19:53;;;;;;;13.38;3.97;;;12.70;99.90;;;;;;5012952;28;20185;-79
2021/10/29 06:22:28;;;;;;;12.70;5.18;;;12.50;99.90;;;;;;5013172;28;20676;-78
2021/10/29 06:24:54;;;;;;;11.88;3.80;;;12.50;99.90;;;;;;5012126;28;20238;-77
2021/10/29 06:29:51;;;;;;;13.98;4.45;;;12.50;99.90;;;;;;5013218;28;20208;-78
2021/10/29 06:32:20;;;;;;;12.27;4.97;;;12.40;99.90;;;;;;5013236;28;20196;-78
2021/10/29 06:34:46;;;;;;;5.88;4.63;;;12.40;99.90;;;;;;5012934;28;20176;-78
2021/10/29 06:37:16;;;;;;;14.57;4.78;;;12.30;99.90;;;;;;5013303;28;20168;-78
2021/10/29 06:39:47;;;;;;;5.70;3.75;;;12.40;99.90;;;;;;5012986;28;20188;-77
2021/10/29 06:42:16;;;;;;;19.08;5.15;;;12.50;99.90;;;;;;5011677;28;20214;-79
2021/10/29 07:00:54;;;;;;;7.22;4.10;;;12.60;99.90;;;;;;5012765;28;20219;-80
2021/10/29 07:41:04;;;;;;;12.15;3.97;;;13.00;99.90;;;;;;5016135;28;20180;-78
2021/10/29 07:43:37;;;;;;;25.23;3.97;;;13.10;99.90;;;;;;5015267;28;20200;-78
2021/10/29 07:46:04;;;;;;;11.00;4.40;;;13.20;99.90;;;;;;5016493;28;20161;-78
2021/10/29 07:48:33;;;;;;;21.80;5.65;;;13.30;99.90;;;;;;5016129;28;20181;-78
2021/10/29 07:50:59;;;;;;;12.73;4.47;;;13.30;99.90;;;;;;5016249;28;20187;-78
2021/10/29 07:53:25;;;;;;;12.18;4.25;;;13.30;99.90;;;;;;5015936;28;20299;-77
2021/10/29 07:55:51;;;;;;;5.00;3.88;;;13.40;99.90;;;;;;5016328;28;20248;-78
2021/10/29 07:58:17;;;;;;;6.40;4.13;;;13.50;99.90;;;;;;5016316;28;20193;-78
2021/10/29 08:00:42;;;;;;;4.78;3.60;;;13.60;99.90;;;;;;5016029;28;20195;-78
2021/10/29 08:03:08;;;;;;;5.75;4.05;;;13.70;99.90;;;;;;5016077;28;20560;-79
2021/10/29 08:05:36;;;;;;;9.00;4.85;;;13.70;99.90;;;;;;5015907;28;20222;-77
2021/10/29 08:08:02;;;;;;;16.17;4.05;;;13.80;99.90;;;;;;5015839;28;20164;-78
2021/10/29 08:10:29;;;;;;;11.82;3.80;;;13.90;99.90;;;;;;5015791;28;20161;-77
2021/10/29 08:12:55;;;;;;;15.90;5.07;;;13.90;99.90;;;;;;5016140;28;20172;-78
2021/10/29 08:15:20;;;;;;;5.00;3.97;;;14.00;99.90;;;;;;5015472;28;20248;-77
2021/10/29 08:17:46;;;;;;;8.35;3.53;;;14.00;99.90;;;;;;5014954;28;20203;-76
2021/10/29 08:20:15;;;;;;;8.60;4.35;;;14.00;99.90;;;;;;5015403;28;20203;-77
2021/10/29 08:22:42;;;;;;;8.25;4.07;;;14.10;99.90;;;;;;5015630;28;20567;-78
2021/10/29 08:25:09;;;;;;;9.98;3.22;;;14.20;99.90;;;;;;5015287;28;20231;-77
2021/10/29 08:27:35;;;;;;;6.57;3.45;;;14.30;99.90;;;;;;5015935;28;20168;-77
2021/10/29 08:30:02;;;;;;;9.50;3.95;;;14.30;99.90;;;;;;5014962;28;20192;-78
2021/10/29 08:32:28;;;;;;;8.68;3.13;;;14.30;99.90;;;;;;5040647;22;20247;-77
2021/10/29 08:34:54;;;;;;;12.65;4.07;;;14.30;99.90;;;;;;5034126;28;20195;-77
2021/10/29 08:37:21;;;;;;;8.98;2.90;;;14.40;99.90;;;;;;5034657;28;20632;-78
2021/10/29 08:39:46;;;;;;;6.60;3.67;;;14.60;99.90;;;;;;5034574;28;20190;-78
2021/10/29 08:42:12;;;;;;;7.85;3.78;;;14.60;99.90;;;;;;5034445;28;20163;-78
2021/10/29 08:44:38;;;;;;;7.57;3.08;;;14.60;99.90;;;;;;5034227;28;20220;-78
2021/10/29 08:47:05;;;;;;;6.63;2.92;;;14.70;99.90;;;;;;5034313;28;20168;-77
2021/10/29 08:49:33;;;;;;;8.38;3.13;;;14.70;99.90;;;;;;5034138;28;20180;-78
2021/10/29 08:52:00;;;;;;;10.18;2.95;;;14.70;99.90;;;;;;5033902;28;20164;-78
2021/10/29 08:54:27;;;;;;;7.80;3.33;;;14.80;99.90;;;;;;5033768;28;20172;-78
2021/10/29 08:56:54;;;;;;;10.10;3.50;;;14.80;99.90;;;;;;5033903;28;20667;-78
2021/10/29 08:59:26;;;;;;;5.97;2.85;;;14.90;99.90;;;;;;5033761;28;20187;-77
2021/10/29 09:02:10;;;;;;;6.68;3.38;;;14.90;99.90;;;;;;5034159;28;20238;-78
2021/10/29 09:31:23;;;;;;;4.57;2.95;;;15.40;99.90;;;;;;5033741;28;20261;-78
2021/10/29 09:32:00;;;;;;;2.72;2.45;;;16.00;99.90;;;;;;5033938;28;20194;-78
2021/10/29 09:34:26;;;;;;;28.92;3.97;;;16.00;99.90;;;;;;5032891;28;20254;-78
2021/10/29 09:36:53;;;;;;;10.48;2.50;;;16.00;99.90;;;;;;5033640;28;20632;-78
2021/10/29 09:39:24;;;;;;;8.82;2.92;;;16.10;99.90;;;;;;5032922;28;20609;-78
2021/10/29 09:42:09;;;;;;;3.85;2.60;;;16.20;99.90;;;;;;5033318;28;20245;-79
2021/10/29 09:44:40;;;;;;;4.43;2.13;;;16.20;99.90;;;;;;5033585;28;20208;-80
2021/10/29 09:47:06;;;;;;;6.95;2.53;;;16.30;99.90;;;;;;5033386;28;20174;-79
2021/10/29 09:49:39;;;;;;;8.27;2.50;;;16.40;99.90;;;;;;5032633;28;20195;-80
2021/10/29 09:57:22;;;;;;;6.72;2.75;;;16.60;99.90;;;;;;5033114;28;20266;-79
2021/10/29 09:59:55;;;;;;;5.05;2.20;;;16.60;99.90;;;;;;5032788;28;20179;-79
2021/10/29 10:02:23;;;;;;;6.93;2.30;;;16.50;99.90;;;;;;5032578;28;20168;-80
2021/10/29 10:04:54;;;;;;;4.38;2.40;;;16.50;99.90;;;;;;5032391;28;20196;-80
2021/10/29 10:07:26;;;;;;;4.00;2.10;;;16.50;99.90;;;;;;5032375;28;20592;-79
2021/10/29 10:09:57;;;;;;;6.15;2.33;;;16.60;99.90;;;;;;5032406;28;20729;-79
2021/10/29 10:12:27;;;;;;;3.70;2.30;;;16.70;99.90;;;;;;5032545;28;20176;-80
2021/10/29 10:14:54;;;;;;;3.78;2.10;;;16.80;99.90;;;;;;5032633;28;20164;-80
2021/10/29 10:17:21;;;;;;;5.80;2.45;;;16.80;99.90;;;;;;5032557;28;20179;-79
2021/10/29 10:19:49;;;;;;;9.63;2.30;;;16.80;99.90;;;;;;5032615;28;20266;-79
2021/10/29 10:22:18;;;;;;;6.47;1.70;;;16.90;99.90;;;;;;5031121;28;20585;-79
2021/10/29 10:24:51;;;;;;;2.53;2.00;;;16.90;99.90;;;;;;5032881;28;20675;-79
2021/10/29 10:41:20;;;;;;;2.72;1.90;;;17.10;99.90;;;;;;5032810;28;20230;-86
2021/10/29 10:46:54;;;;;;;8.23;2.55;;;17.20;99.90;;;;;;5032356;28;20552;-80
2021/10/29 10:49:21;;;;;;;5.95;2.10;;;17.30;99.90;;;;;;5030583;28;20603;-79
2021/10/29 10:52:02;;;;;;;2.03;1.83;;;17.30;99.90;;;;;;5032440;28;20251;-80
2021/10/29 11:10:24;;;;;;;12.40;2.70;;;17.50;99.90;;;;;;5031356;28;20235;-78
2021/10/29 11:13:05;;;;;;;3.83;1.92;;;17.50;99.90;;;;;;5023303;28;20176;-78
2021/10/29 11:15:31;;;;;;;3.63;2.22;;;17.50;99.90;;;;;;5026952;28;20175;-80
2021/10/29 11:18:00;;;;;;;6.90;2.58;;;17.60;99.90;;;;;;5030637;28;20565;-82
2021/10/29 11:23:09;;;;;;;4.80;2.38;;;17.60;99.90;;;;;;5031078;28;20176;-80
2021/10/29 11:25:50;;;;;;;10.15;2.55;;;17.60;99.90;;;;;;5029660;28;20180;-81
2021/10/29 11:28:16;;;;;;;9.75;2.28;;;17.60;99.90;;;;;;5022042;28;20181;-82
2021/10/29 11:30:44;;;;;;;3.08;2.28;;;17.70;99.90;;;;;;5011285;28;20176;-78
2021/10/29 11:33:12;;;;;;;4.20;2.47;;;17.70;99.90;;;;;;5030091;28;20192;-78
2021/10/29 11:35:39;;;;;;;6.95;2.65;;;17.70;99.90;;;;;;5028915;28;20175;-79
2021/10/29 11:38:07;;;;;;;6.43;2.25;;;17.80;99.90;;;;;;5030958;28;20251;-79
2021/10/29 11:40:35;;;;;;;2.88;2.05;;;17.80;99.90;;;;;;5030935;28;20225;-80
2021/10/29 11:43:01;;;;;;;16.52;2.38;;;17.70;99.90;;;;;;5030890;28;20258;-82
2021/10/29 11:45:36;;;;;;;10.18;2.17;;;17.80;99.90;;;;;;5024658;28;20304;-81
2021/10/29 11:48:03;;;;;;;2.78;2.15;;;17.80;99.90;;;;;;5022293;28;20175;-81
2021/10/29 11:50:29;;;;;;;7.75;3.03;;;17.90;99.90;;;;;;5029340;28;20184;-78
2021/10/29 11:52:59;;;;;;;14.05;2.67;;;18.00;99.90;;;;;;5033476;28;20168;-79
2021/10/29 11:55:36;;;;;;;3.83;2.50;;;18.00;99.90;;;;;;5033485;28;20176;-78
2021/10/29 11:58:12;;;;;;;15.25;2.78;;;17.90;99.90;;;;;;5033276;28;20171;-80
2021/10/29 12:00:56;;;;;;;4.60;2.22;;;17.80;99.90;;;;;;5033135;28;20220;-78
2021/10/29 12:08:37;;;;;;;4.85;2.50;;;17.80;99.90;;;;;;5031575;28;20192;-79
2021/10/29 12:11:06;;;;;;;10.15;2.97;;;17.80;99.90;;;;;;5034660;28;20211;-79
2021/10/29 12:13:37;;;;;;;7.10;2.13;;;17.80;99.90;;;;;;5032941;28;20163;-79
2021/10/29 12:16:27;;;;;;;3.17;2.33;;;17.80;99.90;;;;;;5033462;28;20164;-81
2021/10/29 12:19:04;;;;;;;4.63;2.42;;;17.70;99.90;;;;;;5013616;28;20196;-79
2021/10/29 12:21:34;;;;;;;9.65;2.70;;;17.80;99.90;;;;;;5028542;28;20176;-79
2021/10/29 12:24:05;;;;;;;4.72;2.60;;;17.70;99.90;;;;;;5032019;28;20195;-79
2021/10/29 12:26:37;;;;;;;13.50;2.47;;;17.70;99.90;;;;;;5033006;28;20580;-80
2021/10/29 12:29:11;;;;;;;6.32;2.15;;;17.70;99.90;;;;;;5033861;28;20184;-79
2021/10/29 12:32:06;;;;;;;10.30;2.75;;;17.60;99.90;;;;;;5033500;28;20662;-80
2021/10/29 12:38:08;;;;;;;6.97;2.35;;;17.60;99.90;;;;;;5033491;28;20678;-80
2021/10/29 13:02:55;;;;;;;7.03;2.20;;;18.30;99.90;;;;;;5032777;28;20179;-80
2021/10/29 13:05:21;;;;;;;3.53;2.60;;;18.20;99.90;;;;;;5032059;28;20683;-80
2021/10/29 13:07:47;;;;;;;21.45;3.55;;;18.30;99.90;;;;;;5032243;28;20171;-80
2021/10/29 13:10:13;;;;;;;12.55;2.00;;;18.40;99.90;;;;;;5032302;28;20192;-79
2021/10/29 13:15:15;;;;;;;8.57;2.10;;;18.30;99.90;;;;;;5033434;28;20175;-84
2021/10/29 13:18:07;;;;;;;9.65;2.58;;;18.20;99.90;;;;;;5032234;28;20172;-79
2021/10/29 13:28:11;;;;;;;5.47;2.08;;;17.90;99.90;;;;;;5032341;28;20192;-78
2021/10/29 13:36:16;;;;;;;6.50;2.30;;;17.80;99.90;;;;;;5032014;28;20183;-79
2021/10/29 14:17:01;;;;;;;2.72;1.90;;;17.40;99.90;;;;;;5031389;28;20225;-79
2021/10/29 14:30:19;;;;;;;3.83;2.53;;;17.40;99.90;;;;;;5030319;28;20227;-81
2021/10/29 14:32:50;;;;;;;4.05;2.08;;;17.40;99.90;;;;;;5031963;28;20203;-80
2021/10/29 14:35:20;;;;;;;8.88;3.05;;;17.40;99.90;;;;;;5030501;28;20533;-81
2021/10/29 14:40:28;;;;;;;3.35;2.55;;;17.20;99.90;;;;;;5031605;28;20231;-80
2021/10/29 15:06:33;;;;;;;12.48;3.30;;;15.70;99.90;;;;;;5031499;28;20178;-79
2021/10/29 15:15:20;;;;;;;9.18;3.83;;;15.70;99.90;;;;;;5029340;28;20176;-80
2021/10/29 15:31:00;;;;;;;4.55;3.22;;;15.80;99.90;;;;;;5015237;28;20275;-80
2021/10/29 15:44:21;;;;;;;3.20;2.50;;;15.80;99.90;;;;;;5035048;28;20246;-78
2021/10/29 15:46:56;;;;;;;6.28;2.65;;;15.90;99.90;;;;;;5034898;28;20164;-81
2021/10/29 15:49:34;;;;;;;7.45;2.85;;;15.80;99.90;;;;;;5034863;28;20202;-80
2021/10/29 15:52:05;;;;;;;8.10;2.83;;;15.70;99.90;;;;;;5035157;28;20608;-83
2021/10/29 15:54:34;;;;;;;3.08;2.50;;;15.70;99.90;;;;;;5033767;28;20548;-81
2021/10/29 15:57:03;;;;;;;4.28;2.90;;;15.70;99.90;;;;;;5035574;28;20163;-82
2021/10/29 16:18:21;;;;;;;9.60;3.65;;;15.50;99.90;;;;;;5034771;28;20246;-80
2021/10/29 16:20:46;;;;;;;9.38;3.35;;;15.50;99.90;;;;;;5034946;28;20168;-79
2021/10/29 16:23:12;;;;;;;3.58;3.03;;;15.60;99.90;;;;;;5035036;28;20246;-79
2021/10/29 16:26:02;;;;;;;6.28;2.97;;;15.60;99.90;;;;;;5034681;28;20204;-80
2021/10/29 16:28:30;;;;;;;3.28;2.97;;;15.60;99.90;;;;;;5033808;28;20303;-79
2021/10/29 16:30:56;;;;;;;4.80;3.28;;;15.90;99.90;;;;;;5034542;28;20160;-80
2021/10/29 16:33:43;;;;;;;10.20;3.13;;;15.80;99.90;;;;;;5034542;28;20187;-79
2021/10/29 16:36:08;;;;;;;3.58;2.95;;;15.70;99.90;;;;;;5034137;28;20190;-80
2021/10/29 16:38:35;;;;;;;3.88;2.85;;;15.60;99.90;;;;;;5034192;28;20187;-79
2021/10/29 16:41:01;;;;;;;11.00;3.58;;;15.60;99.90;;;;;;5033798;28;20172;-79
2021/10/29 16:43:27;;;;;;;9.38;4.53;;;15.70;99.90;;;;;;5033742;28;20168;-79
2021/10/29 16:45:54;;;;;;;4.80;3.58;;;15.90;99.90;;;;;;5034139;28;20632;-79
2021/10/29 16:48:23;;;;;;;15.48;3.80;;;15.70;99.90;;;;;;5032794;28;20200;-80
2021/10/29 16:50:49;;;;;;;3.97;3.35;;;15.90;99.90;;;;;;5033860;28;20251;-79
2021/10/29 16:53:17;;;;;;;6.00;3.70;;;15.80;99.90;;;;;;5033801;28;20539;-78
2021/10/29 16:55:43;;;;;;;5.82;3.60;;;15.60;99.90;;;;;;5032797;28;20259;-78
2021/10/29 16:58:12;;;;;;;6.68;4.50;;;15.60;99.90;;;;;;5033970;28;20167;-79
2021/10/29 17:00:39;;;;;;;6.35;3.25;;;15.60;99.90;;;;;;5034153;28;20540;-80
2021/10/29 17:03:05;;;;;;;9.18;3.67;;;15.60;99.90;;;;;;5033987;28;20206;-79
2021/10/29 17:05:31;;;;;;;7.88;3.85;;;15.60;99.90;;;;;;5033520;28;20200;-79
2021/10/29 17:07:57;;;;;;;5.55;4.03;;;15.60;99.90;;;;;;5033652;28;20167;-79
2021/10/29 17:10:23;;;;;;;8.05;4.07;;;15.60;99.90;;;;;;5032773;28;20241;-79
2021/10/29 17:12:49;;;;;;;12.43;4.10;;;15.50;99.90;;;;;;5032148;28;20189;-79
2021/10/29 17:15:16;;;;;;;4.10;3.70;;;15.40;99.90;;;;;;5033899;28;20175;-78
2021/10/29 17:17:43;;;;;;;8.40;4.82;;;15.30;99.90;;;;;;5033728;28;20675;-78
2021/10/29 17:20:11;;;;;;;6.13;4.28;;;15.30;99.90;;;;;;5033368;28;20195;-80
2021/10/29 17:22:39;;;;;;;7.13;5.00;;;15.30;99.90;;;;;;5033560;28;20175;-79
2021/10/29 17:25:06;;;;;;;9.90;4.60;;;15.30;99.90;;;;;;5033455;28;20667;-79
2021/10/29 17:27:32;;;;;;;8.32;4.45;;;15.30;99.90;;;;;;5033342;28;20164;-79
2021/10/29 17:29:58;;;;;;;9.57;4.35;;;15.40;99.90;;;;;;5033090;28;20244;-79
2021/10/29 17:32:23;;;;;;;14.15;4.70;;;15.40;99.90;;;;;;5032855;28;20180;-78
2021/10/29 17:34:49;;;;;;;8.73;4.43;;;15.30;99.90;;;;;;5035292;28;20179;-79
2021/10/29 17:37:16;;;;;;;7.03;4.43;;;15.30;99.90;;;;;;5033181;28;20164;-79
2021/10/29 17:39:42;;;;;;;8.82;4.38;;;15.30;99.90;;;;;;5033420;28;20183;-80
2021/10/29 17:42:08;;;;;;;17.33;4.38;;;15.40;99.90;;;;;;5033232;28;20323;-78
2021/10/29 17:44:35;;;;;;;5.00;4.55;;;15.40;99.90;;;;;;5032901;28;20242;-79
2021/10/29 17:47:03;;;;;;;5.25;4.07;;;15.40;99.90;;;;;;5032855;28;20164;-79
2021/10/29 17:49:30;;;;;;;8.90;5.20;;;15.50;99.90;;;;;;5032479;28;20621;-79